This is the latest recevied weather packets stored in our database for station/object EA1IXY-2. If no packets are shown the sender has not sent any weather packets the latest 10 day(s).
| Time | Temp. | Humidity | Pressure | Rain* | Wind** | Luminosity | Snow |
|---|---|---|---|---|---|---|---|
| 1778219453 | 37.78° C | 17% | 923.2 hPa | - | - | - | - |
| 1778218553 | 38.33° C | 16% | 923.2 hPa | - | - | - | - |
| 1778217653 | 38.33° C | 16% | 922.7 hPa | - | - | - | - |
| 1778216753 | 38.33° C | 16% | 922.5 hPa | - | - | - | - |
| 1778215852 | 38.33° C | 17% | 922.3 hPa | - | - | - | - |
| 1778214040 | 37.78° C | 17% | 922.2 hPa | - | - | - | - |
| 1778213140 | 37.78° C | 17% | 922.3 hPa | - | - | - | - |
| 1778212240 | 38.33° C | 16% | 922.2 hPa | - | - | - | - |
| 1778211340 | 37.78° C | 16% | 922.4 hPa | - | - | - | - |
| 1778209540 | 38.33° C | 17% | 922.5 hPa | - | - | - | - |
| 1778208640 | 37.78° C | 17% | 922.8 hPa | - | - | - | - |
| 1778206840 | 37.78° C | 17% | 923 hPa | - | - | - | - |
| 1778205940 | 37.78° C | 17% | 923 hPa | - | - | - | - |
| 1778205039 | 37.78° C | 16% | 923.1 hPa | - | - | - | - |
| 1778204139 | 36.67° C | 17% | 922 hPa | - | - | - | - |
| 1778203227 | 37.78° C | 17% | 923.5 hPa | - | - | - | - |
| 1778202327 | 37.78° C | 17% | 923.6 hPa | - | - | - | - |
| 1778201427 | 37.78° C | 17% | 923.8 hPa | - | - | - | - |
| 1778200527 | 37.78° C | 17% | 923.9 hPa | - | - | - | - |
| 1778198727 | 37.78° C | 17% | 924.5 hPa | - | - | - | - |
| 1778197827 | 37.22° C | 17% | 924.6 hPa | - | - | - | - |
| 1778196927 | 37.78° C | 17% | 924.9 hPa | - | - | - | - |
| 1778196027 | 37.78° C | 17% | 924.5 hPa | - | - | - | - |
| 1778195127 | 37.78° C | 16% | 924.6 hPa | - | - | - | - |
| 1778194226 | 37.78° C | 16% | 924.7 hPa | - | - | - | - |
* Rain since midnight (hover to see other rain measurements)
** Current wind speed in m/s (hover to see current wind gust speed)